Tower, Minnesota
Current Conditions -  °F | °C
As of 9:14 AM on Monday 24 Nov 2014 (Local Time) from KCQM Reporting Station
NA  
Wind Chill: 13°   Ceiling: NA
Heat Index: 23°   Visibility: 10mi
Dew Point: 21°   Wind: 9mph
Humidity: 93%   Direction: 330°NNW
Pressure: 29.38"   Gusts: 18mph
Location:  47.81°N, 92.27°W
Report Text: KCQM 241514Z AUTO 33008G16KT 10SM M05/M06 A2938 RMK AO2
Loading
Personal Weather Stations






























Interactive Weather Map New forecast layout! Learn more

10-Day Weather Forecast

Advertisements
Track Severe Weather on mobile